createdAt,value
2018-09-24T00:01:32.708Z,25.07
2018-09-24T00:04:01.396Z,24.67
2018-09-24T00:06:30.184Z,25.20
2018-09-24T00:08:58.867Z,24.53
2018-09-24T00:11:27.653Z,25.23
2018-09-24T00:13:56.378Z,26.60
2018-09-24T00:16:25.195Z,24.60
2018-09-24T00:18:53.905Z,28.97
2018-09-24T00:21:22.654Z,26.27
2018-09-24T00:23:51.391Z,22.83
2018-09-24T00:26:20.435Z,26.50
2018-09-24T00:28:49.127Z,26.47
2018-09-24T00:31:17.888Z,24.17
2018-09-24T00:33:46.646Z,23.43
2018-09-24T00:36:15.425Z,26.13
2018-09-24T00:38:44.293Z,24.87
2018-09-24T00:41:13.116Z,25.20
2018-09-24T00:43:41.915Z,24.47
2018-09-24T00:46:10.966Z,27.33
2018-09-24T00:48:39.689Z,24.20
2018-09-24T00:51:08.420Z,27.20
2018-09-24T00:53:37.505Z,25.47
2018-09-24T00:56:06.352Z,25.93
2018-09-24T00:58:35.121Z,24.67
2018-09-24T01:01:03.932Z,25.33
2018-09-24T01:03:35.329Z,24.77
2018-09-24T01:06:04.215Z,24.77
2018-09-24T01:08:33.006Z,24.70
2018-09-24T01:11:01.768Z,24.33
2018-09-24T01:13:30.455Z,23.97
2018-09-24T01:15:59.223Z,22.60
2018-09-24T01:18:28.060Z,22.43
2018-09-24T01:20:56.787Z,23.87
2018-09-24T01:23:25.481Z,24.13
2018-09-24T01:25:54.315Z,24.23
2018-09-24T01:28:23.036Z,23.47
2018-09-24T01:30:51.731Z,22.43
2018-09-24T01:33:20.487Z,22.67
2018-09-24T01:35:49.172Z,22.97
2018-09-24T01:38:17.954Z,24.60
2018-09-24T01:40:46.736Z,22.93
2018-09-24T01:43:15.535Z,24.90
2018-09-24T01:45:44.327Z,23.83
2018-09-24T01:48:13.057Z,22.90
2018-09-24T01:50:41.799Z,22.30
2018-09-24T01:53:10.581Z,23.07
2018-09-24T01:55:39.339Z,24.47
2018-09-24T01:58:08.069Z,21.87
2018-09-24T02:00:36.824Z,21.47
2018-09-24T02:03:05.706Z,22.37
2018-09-24T02:05:34.377Z,22.63
2018-09-24T02:08:03.039Z,23.73
2018-09-24T02:10:31.793Z,23.83
2018-09-24T02:13:00.542Z,21.97
2018-09-24T02:15:31.011Z,22.13
2018-09-24T02:17:59.967Z,22.67
2018-09-24T02:20:29.017Z,22.40
2018-09-24T02:22:57.780Z,24.63
2018-09-24T02:25:26.544Z,23.20
2018-09-24T02:27:55.363Z,22.23
2018-09-24T02:30:24.094Z,22.23
2018-09-24T02:32:52.772Z,24.20
2018-09-24T02:35:21.565Z,22.83
2018-09-24T02:37:50.312Z,23.03
2018-09-24T02:40:21.458Z,22.40
2018-09-24T02:42:50.359Z,22.63
2018-09-24T02:45:19.237Z,21.97
2018-09-24T02:47:47.961Z,23.40
2018-09-24T02:50:16.652Z,22.50
2018-09-24T02:52:45.478Z,22.73
2018-09-24T02:55:17.835Z,23.07
2018-09-24T02:57:46.729Z,26.27
2018-09-24T03:00:21.165Z,24.33
2018-09-24T03:02:50.146Z,24.77
2018-09-24T03:05:18.787Z,24.03
2018-09-24T03:07:47.612Z,23.63
2018-09-24T03:10:16.402Z,23.37
2018-09-24T03:12:50.069Z,23.27
2018-09-24T03:15:19.069Z,22.73
2018-09-24T03:17:47.785Z,24.63
2018-09-24T03:20:16.544Z,25.97
2018-09-24T03:22:45.284Z,22.63
2018-09-24T03:25:18.351Z,23.00
2018-09-24T03:27:47.626Z,23.80
2018-09-24T03:30:16.722Z,25.17
2018-09-24T03:32:45.445Z,25.47
2018-09-24T03:35:14.216Z,24.03
2018-09-24T03:37:42.913Z,24.17
2018-09-24T03:40:11.657Z,26.97
2018-09-24T03:42:40.391Z,28.57
2018-09-24T03:45:09.176Z,27.57
2018-09-24T03:47:37.933Z,26.37
2018-09-24T03:50:06.775Z,26.47
2018-09-24T03:52:35.456Z,25.63
2018-09-24T03:55:04.292Z,27.23
2018-09-24T03:57:33.029Z,25.37
2018-09-24T04:00:01.820Z,25.80
2018-09-24T04:02:30.536Z,27.37
2018-09-24T04:05:04.429Z,28.23
2018-09-24T04:07:38.292Z,26.37
2018-09-24T04:10:12.532Z,25.47
2018-09-24T04:12:46.592Z,25.47
2018-09-24T04:15:20.616Z,28.30
2018-09-24T04:17:54.609Z,24.70
2018-09-24T04:20:28.488Z,24.30
2018-09-24T04:23:02.424Z,24.77
2018-09-24T04:25:36.375Z,26.17
2018-09-24T04:28:10.199Z,24.70
2018-09-24T04:30:44.043Z,27.23
2018-09-24T04:33:18.040Z,24.53
2018-09-24T04:35:51.841Z,25.83
2018-09-24T04:38:25.696Z,23.30
2018-09-24T04:40:59.660Z,24.63
2018-09-24T04:43:33.756Z,26.43
2018-09-24T04:46:07.569Z,26.37
2018-09-24T04:48:41.494Z,25.03
2018-09-24T04:51:15.459Z,29.63
2018-09-24T04:53:49.415Z,26.23
2018-09-24T04:56:23.359Z,27.80
2018-09-24T04:58:57.249Z,36.27
2018-09-24T05:01:31.169Z,33.60
2018-09-24T05:04:04.995Z,32.37
2018-09-24T05:06:38.841Z,32.23
2018-09-24T05:09:13.980Z,31.17
2018-09-24T05:11:47.903Z,28.53
2018-09-24T05:14:21.973Z,28.60
2018-09-24T05:16:55.832Z,28.57
2018-09-24T05:19:29.815Z,29.67
2018-09-24T05:22:03.735Z,34.27
2018-09-24T05:24:37.732Z,28.60
2018-09-24T05:27:11.688Z,31.10
2018-09-24T05:29:45.561Z,30.43
2018-09-24T05:32:19.398Z,35.90
2018-09-24T05:34:53.148Z,32.03
2018-09-24T05:37:27.016Z,30.40
2018-09-24T05:40:00.906Z,30.73
2018-09-24T05:42:34.871Z,30.60
2018-09-24T05:45:08.855Z,27.50
2018-09-24T05:47:42.751Z,28.37
2018-09-24T05:50:16.590Z,27.33
2018-09-24T05:52:50.436Z,28.07
2018-09-24T05:55:24.365Z,29.30
2018-09-24T05:57:58.320Z,29.43
2018-09-24T06:00:32.267Z,30.37
2018-09-24T06:03:06.228Z,28.00
2018-09-24T06:05:40.076Z,28.73
2018-09-24T06:08:14.064Z,27.65
2018-09-24T06:10:48.036Z,24.47
2018-09-24T06:13:21.925Z,28.50
2018-09-24T06:15:55.870Z,27.25
2018-09-24T06:18:29.777Z,24.87
2018-09-24T06:21:03.740Z,26.42
2018-09-24T06:23:37.620Z,26.05
2018-09-24T06:26:11.681Z,25.32
2018-09-24T06:28:45.386Z,26.07
2018-09-24T06:31:19.216Z,27.40
2018-09-24T06:33:53.053Z,25.45
2018-09-24T06:36:26.972Z,25.95
2018-09-24T06:39:00.829Z,26.23
2018-09-24T06:41:34.729Z,25.48
2018-09-24T06:44:08.621Z,26.37
2018-09-24T06:46:42.479Z,26.40
2018-09-24T06:49:16.399Z,25.23
2018-09-24T06:51:50.210Z,27.40
2018-09-24T06:54:23.972Z,25.05
2018-09-24T06:56:57.877Z,25.50
2018-09-24T06:59:31.863Z,24.15
2018-09-24T07:02:05.806Z,24.92
2018-09-24T07:04:39.581Z,24.63
2018-09-24T07:07:13.632Z,26.65
2018-09-24T07:09:47.439Z,25.75
2018-09-24T07:12:21.322Z,27.50
2018-09-24T07:14:55.323Z,25.45
2018-09-24T07:17:29.228Z,25.80
2018-09-24T07:20:03.087Z,27.52
2018-09-24T07:22:36.864Z,26.73
2018-09-24T07:25:10.939Z,27.55
2018-09-24T07:27:44.775Z,26.15
2018-09-24T07:30:18.681Z,25.27
2018-09-24T07:32:52.616Z,26.07
2018-09-24T07:35:26.539Z,24.05
2018-09-24T07:38:00.319Z,23.95
2018-09-24T07:40:34.087Z,24.32
2018-09-24T07:43:07.997Z,24.47
2018-09-24T07:45:41.928Z,23.95
2018-09-24T07:48:20.101Z,23.90
2018-09-24T07:50:53.991Z,22.07
2018-09-24T07:53:27.848Z,24.07
2018-09-24T07:56:01.800Z,23.80
2018-09-24T07:58:35.645Z,22.60
2018-09-24T08:01:09.510Z,22.77
2018-09-24T08:03:43.382Z,22.40
2018-09-24T08:06:17.385Z,22.75
2018-09-24T08:08:51.066Z,22.87
2018-09-24T08:11:36.461Z,22.93
2018-09-24T08:14:10.472Z,22.80
2018-09-24T08:16:44.309Z,23.22
2018-09-24T08:19:18.238Z,22.85
2018-09-24T08:21:52.260Z,23.10
2018-09-24T08:24:26.207Z,24.50
2018-09-24T08:27:00.264Z,21.77
2018-09-24T08:29:34.185Z,21.77
2018-09-24T08:32:12.298Z,22.70
2018-09-24T08:34:51.126Z,21.77
2018-09-24T08:37:32.016Z,21.52
2018-09-24T08:40:06.480Z,20.97
2018-09-24T08:42:40.377Z,21.70
2018-09-24T08:45:17.484Z,21.33
2018-09-24T08:47:51.228Z,20.37
2018-09-24T08:50:25.172Z,20.15
2018-09-24T08:52:59.083Z,19.98
2018-09-24T08:55:33.105Z,18.90
2018-09-24T08:58:07.045Z,17.10
2018-09-24T09:00:40.978Z,18.65
2018-09-24T09:03:14.873Z,18.82
2018-09-24T09:05:48.871Z,19.40
2018-09-24T09:08:22.732Z,20.52
2018-09-24T09:10:56.793Z,18.15
2018-09-24T09:13:30.819Z,17.32
2018-09-24T09:16:04.664Z,18.48
2018-09-24T09:18:39.006Z,16.93
2018-09-24T09:21:12.945Z,15.90
2018-09-24T09:23:46.879Z,18.10
2018-09-24T09:26:20.777Z,13.78
2018-09-24T09:28:54.700Z,13.88
2018-09-24T09:31:28.735Z,14.30
2018-09-24T09:34:02.702Z,18.55
2018-09-24T09:36:36.701Z,15.03
2018-09-24T09:39:13.286Z,18.32
2018-09-24T09:41:57.228Z,16.37
2018-09-24T09:44:31.611Z,22.22
2018-09-24T09:47:06.930Z,16.65
2018-09-24T09:49:40.719Z,14.58
2018-09-24T09:52:14.675Z,16.48
2018-09-24T09:54:48.571Z,16.65
2018-09-24T09:57:22.483Z,15.45
2018-09-24T09:59:56.517Z,14.18
2018-09-24T10:02:38.414Z,14.47
2018-09-24T10:05:12.526Z,14.05
2018-09-24T10:07:46.442Z,13.35
2018-09-24T10:10:20.312Z,14.83
2018-09-24T10:12:54.349Z,14.65
2018-09-24T10:15:28.300Z,13.13
2018-09-24T10:18:02.171Z,13.65
2018-09-24T10:20:36.447Z,15.32
2018-09-24T10:23:10.326Z,12.47
2018-09-24T10:25:44.397Z,14.05
2018-09-24T10:28:18.322Z,11.55
2018-09-24T10:30:52.277Z,12.55
2018-09-24T10:33:26.265Z,11.03
2018-09-24T10:36:00.267Z,12.30
2018-09-24T10:38:34.083Z,11.95
2018-09-24T10:41:08.580Z,12.07
2018-09-24T10:43:42.415Z,16.82
2018-09-24T10:46:17.112Z,12.47
2018-09-24T10:48:50.847Z,11.22
2018-09-24T10:51:25.940Z,7.60
2018-09-24T10:54:06.203Z,11.25
2018-09-24T10:56:39.940Z,7.92
2018-09-24T10:59:13.808Z,10.20
2018-09-24T11:01:47.685Z,6.95
2018-09-24T11:04:21.709Z,11.55
2018-09-24T11:06:55.705Z,9.98
2018-09-24T11:09:30.642Z,9.60
2018-09-24T11:12:04.488Z,11.40
2018-09-24T11:14:38.404Z,6.67
2018-09-24T11:17:12.663Z,7.22
2018-09-24T11:19:47.268Z,9.15
2018-09-24T11:22:23.778Z,9.45
2018-09-24T11:25:06.937Z,9.65
2018-09-24T11:27:40.823Z,12.28
2018-09-24T11:30:36.379Z,13.90
2018-09-24T11:33:13.094Z,8.93
2018-09-24T11:35:56.299Z,10.25
2018-09-24T11:38:30.297Z,9.68
2018-09-24T11:41:04.542Z,9.95
2018-09-24T11:43:44.033Z,23.27
2018-09-24T11:46:18.041Z,21.07
2018-09-24T11:48:52.102Z,21.62
2018-09-24T11:51:34.604Z,21.80
2018-09-24T11:54:26.914Z,24.45
2018-09-24T11:57:03.767Z,35.60
2018-09-24T11:59:39.086Z,64.03
2018-09-24T12:02:16.349Z,116.65
2018-09-24T12:04:53.703Z,51.10
2018-09-24T12:07:30.196Z,47.35
2018-09-24T12:10:04.171Z,75.20
2018-09-24T12:12:38.080Z,32.57
2018-09-24T12:15:16.029Z,45.53
2018-09-24T12:17:50.132Z,46.67
2018-09-24T12:20:37.900Z,54.07
2018-09-24T12:23:11.885Z,65.83
2018-09-24T12:25:45.825Z,50.50
2018-09-24T12:28:21.523Z,27.47
2018-09-24T12:30:55.692Z,34.70
2018-09-24T12:33:29.525Z,28.90
2018-09-24T12:36:03.403Z,40.53
2018-09-24T12:38:37.308Z,35.00
2018-09-24T12:41:11.287Z,46.60
2018-09-24T12:43:46.292Z,25.00
2018-09-24T12:46:22.559Z,31.90
2018-09-24T12:48:56.474Z,30.63
2018-09-24T12:51:30.391Z,31.07
2018-09-24T12:54:04.336Z,38.57
2018-09-24T12:56:38.204Z,43.00
2018-09-24T12:59:12.140Z,37.07
2018-09-24T13:01:46.099Z,34.87
2018-09-24T13:04:20.210Z,48.70
2018-09-24T13:07:00.841Z,38.20
2018-09-24T13:09:34.828Z,31.20
2018-09-24T13:12:08.763Z,20.93
2018-09-24T13:14:42.749Z,23.60
2018-09-24T13:17:16.731Z,23.50
2018-09-24T13:19:50.679Z,25.57
2018-09-24T13:22:24.519Z,20.10
2018-09-24T13:24:58.441Z,12.47
2018-09-24T13:27:32.287Z,16.53
2018-09-24T13:30:06.293Z,15.70
2018-09-24T13:32:40.271Z,18.97
2018-09-24T13:35:14.190Z,57.17
2018-09-24T13:37:48.177Z,20.83
2018-09-24T13:40:22.215Z,16.43
2018-09-24T13:42:56.140Z,12.57
2018-09-24T13:45:30.039Z,10.53
2018-09-24T13:48:03.945Z,20.33
2018-09-24T13:53:47.709Z,8.33
2018-09-24T13:56:30.946Z,9.53
2018-09-24T13:59:11.682Z,10.90
2018-09-24T14:01:45.789Z,5.97
2018-09-24T14:04:19.860Z,8.03
2018-09-24T14:06:53.894Z,7.27
2018-09-24T14:09:52.147Z,4.13
2018-09-24T14:12:26.050Z,6.20
2018-09-24T14:14:59.989Z,9.27
2018-09-24T14:17:53.061Z,9.10
2018-09-24T14:20:27.035Z,8.67
2018-09-24T14:23:00.934Z,11.17
2018-09-24T14:25:53.430Z,9.20
2018-09-24T14:28:50.893Z,9.07
2018-09-24T14:45:54.125Z,4.20
2018-09-24T14:48:41.016Z,11.77
2018-09-24T14:51:15.198Z,4.63
2018-09-24T14:57:00.627Z,2.17
2018-09-24T14:59:50.243Z,4.60
2018-09-24T15:02:26.063Z,4.20
2018-09-24T15:05:02.774Z,6.80
2018-09-24T15:07:40.268Z,3.27
2018-09-24T15:10:14.227Z,4.40
2018-09-24T15:12:48.167Z,5.53
2018-09-24T15:15:22.028Z,5.87
2018-09-24T15:18:23.325Z,3.53
2018-09-24T15:20:57.132Z,5.27
2018-09-24T15:23:31.234Z,3.77
2018-09-24T15:26:05.206Z,4.80
2018-09-24T15:28:39.030Z,2.27
2018-09-24T15:31:12.883Z,1.77
2018-09-24T15:33:56.950Z,1.90
2018-09-24T15:36:40.965Z,5.00
2018-09-24T15:39:14.830Z,3.80
2018-09-24T15:41:48.676Z,3.97
2018-09-24T15:44:22.441Z,3.90
2018-09-24T15:47:04.555Z,9.27
2018-09-24T15:49:38.496Z,2.80
2018-09-24T15:52:12.421Z,4.80
2018-09-24T15:54:46.471Z,5.90
2018-09-24T15:57:20.956Z,3.17
2018-09-24T15:59:54.818Z,4.30
2018-09-24T16:02:28.692Z,3.57
2018-09-24T16:05:02.625Z,4.53
2018-09-24T16:07:36.439Z,2.63
2018-09-24T16:10:11.382Z,2.13
2018-09-24T16:12:53.015Z,5.87
2018-09-24T16:15:26.944Z,2.57
2018-09-24T16:18:03.949Z,3.13
2018-09-24T16:20:37.948Z,3.27
2018-09-24T16:23:12.134Z,2.13
2018-09-24T16:25:46.150Z,3.27
2018-09-24T16:28:21.593Z,4.03
2018-09-24T16:30:55.607Z,3.93
2018-09-24T16:33:29.512Z,1.83
2018-09-24T16:36:03.547Z,8.97
2018-09-24T16:38:37.559Z,2.90
2018-09-24T16:41:11.555Z,7.73
2018-09-24T16:43:46.690Z,4.80
2018-09-24T16:46:20.698Z,2.20
2018-09-24T16:48:54.629Z,4.13
2018-09-24T16:51:28.611Z,2.67
2018-09-24T16:54:02.523Z,4.33
2018-09-24T16:56:36.557Z,5.40
2018-09-24T16:59:10.660Z,4.93
2018-09-24T17:01:44.721Z,2.23
2018-09-24T17:04:18.702Z,2.63
2018-09-24T17:06:52.467Z,2.83
2018-09-24T17:09:26.415Z,3.77
2018-09-24T17:12:00.474Z,2.67
2018-09-24T17:14:34.366Z,2.63
2018-09-24T17:17:08.367Z,3.67
2018-09-24T17:19:42.398Z,3.23
2018-09-24T17:22:16.273Z,4.27
2018-09-24T17:24:50.247Z,3.63
2018-09-24T17:27:24.102Z,3.30
2018-09-24T17:29:57.996Z,3.43
2018-09-24T17:32:31.916Z,4.90
2018-09-24T17:35:05.840Z,3.57
2018-09-24T17:37:39.822Z,3.10
2018-09-24T17:40:13.641Z,3.47
2018-09-24T17:42:47.502Z,4.67
2018-09-24T17:45:21.392Z,3.20
2018-09-24T17:47:55.217Z,4.67
2018-09-24T17:50:29.108Z,2.87
2018-09-24T17:53:03.224Z,4.40
2018-09-24T17:55:37.043Z,3.97
2018-09-24T17:58:10.913Z,4.20
2018-09-24T18:00:44.828Z,4.40
2018-09-24T18:03:18.820Z,5.17
2018-09-24T18:05:52.578Z,5.83
2018-09-24T18:08:26.513Z,6.80
2018-09-24T18:11:00.461Z,7.87
2018-09-24T18:13:34.369Z,5.97
2018-09-24T18:16:08.227Z,6.23
2018-09-24T18:18:42.335Z,6.80
2018-09-24T18:21:16.188Z,7.13
2018-09-24T18:23:50.233Z,10.17
2018-09-24T18:26:24.124Z,6.80
2018-09-24T18:28:57.977Z,6.60
2018-09-24T18:31:31.777Z,8.80
2018-09-24T18:34:05.803Z,6.33
2018-09-24T18:36:39.829Z,6.47
2018-09-24T18:39:14.778Z,6.50
2018-09-24T18:41:48.745Z,6.10
2018-09-24T18:44:22.876Z,5.80
2018-09-24T18:46:56.712Z,6.30
2018-09-24T18:49:30.708Z,6.23
2018-09-24T18:52:04.584Z,5.73
2018-09-24T18:54:38.572Z,6.03
2018-09-24T18:57:12.473Z,5.63
2018-09-24T18:59:46.297Z,5.90
2018-09-24T19:02:20.117Z,5.70
2018-09-24T19:04:54.140Z,5.30
2018-09-24T19:07:28.173Z,6.10
2018-09-24T19:10:02.024Z,5.67
2018-09-24T19:12:35.958Z,5.97
2018-09-24T19:15:09.838Z,6.00
2018-09-24T19:17:43.757Z,6.47
2018-09-24T19:20:17.536Z,7.30
2018-09-24T19:22:51.525Z,6.97
2018-09-24T19:25:25.311Z,7.30
2018-09-24T19:27:59.209Z,6.87
2018-09-24T19:30:33.140Z,6.63
2018-09-24T19:33:07.051Z,6.53
2018-09-24T19:35:40.971Z,7.70
2018-09-24T19:38:14.865Z,7.23
2018-09-24T19:40:48.860Z,6.93
2018-09-24T19:43:22.678Z,7.53
2018-09-24T19:45:56.841Z,5.87
2018-09-24T19:48:30.749Z,6.17
2018-09-24T19:51:04.656Z,6.57
2018-09-24T19:53:38.993Z,6.30
2018-09-24T19:56:12.879Z,5.63
2018-09-24T19:58:46.827Z,6.57
2018-09-24T20:01:20.769Z,6.20
2018-09-24T20:03:54.705Z,6.60
2018-09-24T20:06:28.684Z,6.30
2018-09-24T20:09:02.669Z,6.93
2018-09-24T20:11:36.485Z,5.37
2018-09-24T20:14:10.372Z,4.70
2018-09-24T20:16:44.352Z,5.60
2018-09-24T20:19:18.134Z,4.13
2018-09-24T20:21:51.998Z,4.67
2018-09-24T20:24:25.861Z,3.90
2018-09-24T20:26:59.721Z,3.93
2018-09-24T20:29:33.710Z,3.87
2018-09-24T20:32:07.477Z,4.23
2018-09-24T20:34:41.448Z,3.57
2018-09-24T20:37:15.338Z,3.37
2018-09-24T20:39:49.346Z,3.50
2018-09-24T20:42:23.280Z,2.70
2018-09-24T20:44:57.222Z,2.73
2018-09-24T20:47:31.631Z,3.57
2018-09-24T20:50:05.554Z,2.57
2018-09-24T20:52:39.626Z,2.70
2018-09-24T20:55:13.539Z,3.47
2018-09-24T20:57:47.384Z,2.53
2018-09-24T21:00:21.398Z,2.93
2018-09-24T21:02:55.236Z,2.30
2018-09-24T21:05:29.126Z,2.40
2018-09-24T21:08:03.048Z,1.70
2018-09-24T21:10:36.977Z,1.90
2018-09-24T21:13:11.118Z,1.93
2018-09-24T21:15:44.971Z,2.10
2018-09-24T21:18:18.925Z,2.87
2018-09-24T21:20:52.902Z,2.20
2018-09-24T21:23:26.759Z,2.10
2018-09-24T21:26:00.724Z,2.27
2018-09-24T21:28:34.664Z,1.87
2018-09-24T21:31:09.565Z,1.80
2018-09-24T21:33:43.358Z,1.70
2018-09-24T21:36:17.358Z,2.20
2018-09-24T21:38:51.164Z,2.17
2018-09-24T21:41:25.092Z,1.90
2018-09-24T21:43:59.087Z,2.27
2018-09-24T21:46:33.112Z,1.97
2018-09-24T21:49:06.918Z,3.47
2018-09-24T21:51:40.691Z,1.97
2018-09-24T21:54:14.681Z,2.00
2018-09-24T21:56:48.609Z,2.20
2018-09-24T21:59:22.298Z,2.30
2018-09-24T22:01:56.141Z,2.00
2018-09-24T22:04:30.148Z,1.97
2018-09-24T22:07:03.969Z,2.30
2018-09-24T22:09:37.858Z,3.00
2018-09-24T22:12:11.803Z,3.10
2018-09-24T22:14:45.645Z,2.50
2018-09-24T22:17:19.546Z,3.33
2018-09-24T22:19:53.405Z,1.90
2018-09-24T22:22:27.283Z,2.07
2018-09-24T22:25:01.235Z,2.40
2018-09-24T22:27:35.072Z,2.17
2018-09-24T22:30:09.127Z,2.30
2018-09-24T22:32:43.031Z,2.20
2018-09-24T22:35:16.974Z,2.63
2018-09-24T22:37:50.816Z,2.67
2018-09-24T22:40:24.533Z,4.17
2018-09-24T22:42:58.392Z,3.53
2018-09-24T22:45:32.324Z,3.00
2018-09-24T22:48:06.208Z,2.93
2018-09-24T22:50:40.120Z,3.10
2018-09-24T22:53:14.024Z,3.77
2018-09-24T22:55:48.000Z,4.63
2018-09-24T22:58:21.830Z,3.47
2018-09-24T23:00:55.771Z,3.93
2018-09-24T23:03:29.751Z,3.50
2018-09-24T23:06:03.631Z,3.97
2018-09-24T23:08:37.484Z,3.60
2018-09-24T23:11:11.686Z,3.83
2018-09-24T23:13:45.378Z,4.43
2018-09-24T23:16:19.384Z,4.33
2018-09-24T23:18:53.274Z,5.03
2018-09-24T23:21:27.021Z,4.53
2018-09-24T23:24:00.852Z,4.27
2018-09-24T23:26:34.725Z,4.23
2018-09-24T23:29:08.741Z,4.30
2018-09-24T23:31:42.627Z,4.83
2018-09-24T23:34:16.465Z,4.20
2018-09-24T23:36:50.399Z,3.83
2018-09-24T23:39:24.135Z,4.53
2018-09-24T23:41:58.126Z,4.40
2018-09-24T23:44:32.008Z,4.53
2018-09-24T23:47:05.797Z,4.40
2018-09-24T23:49:39.614Z,5.33
2018-09-24T23:52:13.550Z,4.17
2018-09-24T23:54:47.312Z,4.27
2018-09-24T23:57:21.323Z,4.63
2018-09-24T23:59:55.049Z,4.10
